Time;durP1;ratioP1;P1;durP2;ratioP2;P2;SDS_P1;SDS_P2;PMS_P1;PMS_P2;Temp;Humidity;BMP_temperature;BMP_pressure;BME280_temperature;BME280_humidity;BME280_pressure;Samples;Min_cycle;Max_cycle;Signal;HPM_P1;HPM_P2
2022/11/13 00:00:53;;;;;;;27.48;20.88;;;;;;;7.71;100.00;99435.25;1860212;77;20895;-59
2022/11/13 00:03:38;;;;;;;26.35;20.32;;;;;;;7.73;100.00;99439.81;1860180;77;20958;-60
2022/11/13 00:06:24;;;;;;;25.57;19.17;;;;;;;7.73;100.00;99445.67;1860382;77;20852;-61
2022/11/13 00:09:10;;;;;;;27.82;21.37;;;;;;;7.71;100.00;99455.25;1860188;77;21214;-60
2022/11/13 00:11:55;;;;;;;27.50;21.95;;;;;;;7.71;100.00;99448.58;1859999;77;20989;-60
2022/11/13 00:14:40;;;;;;;26.95;20.15;;;;;;;7.70;100.00;99447.50;1860313;77;20821;-58
2022/11/13 00:17:27;;;;;;;27.45;21.70;;;;;;;7.69;100.00;99448.02;1860038;77;20970;-58
2022/11/13 00:20:12;;;;;;;26.20;21.45;;;;;;;7.71;100.00;99437.91;1860374;77;20895;-59
2022/11/13 00:22:57;;;;;;;30.05;22.50;;;;;;;7.71;100.00;99440.58;1860168;77;21366;-60
2022/11/13 00:25:43;;;;;;;;;;;;;;;7.71;100.00;99446.44;1863111;77;21366;-59
2022/11/13 00:28:28;;;;;;;30.75;20.97;;;;;;;7.71;100.00;99446.44;1853037;77;20079;-60
2022/11/13 00:31:14;;;;;;;26.60;21.52;;;;;;;7.70;100.00;99441.62;1851313;77;20962;-59
2022/11/13 00:33:59;;;;;;;;;;;;;;;7.72;100.00;99442.22;1854207;77;21407;-60
2022/11/13 00:36:44;;;;;;;32.25;23.22;;;;;;;7.72;100.00;99446.22;1851235;77;21227;-60
2022/11/13 00:39:29;;;;;;;28.57;22.05;;;;;;;7.71;100.00;99445.92;1851276;77;20856;-61
2022/11/13 00:42:15;;;;;;;26.48;20.85;;;;;;;7.68;100.00;99446.38;1851350;77;20840;-60
2022/11/13 00:45:00;;;;;;;27.58;21.70;;;;;;;7.66;100.00;99455.14;1851197;77;20922;-60
2022/11/13 00:47:46;;;;;;;32.05;23.62;;;;;;;7.65;100.00;99454.88;1851214;77;20915;-60
2022/11/13 00:50:33;;;;;;;25.20;22.15;;;;;;;7.63;100.00;99452.94;1851208;77;21224;-61
2022/11/13 00:53:18;;;;;;;25.75;21.95;;;;;;;7.58;100.00;99448.86;1851237;77;20946;-60
2022/11/13 00:56:05;;;;;;;26.60;21.17;;;;;;;7.52;100.00;99447.94;1851346;77;20813;-60
2022/11/13 00:58:50;;;;;;;31.48;23.15;;;;;;;7.49;100.00;99444.40;1851175;77;20841;-61
2022/11/13 01:01:36;;;;;;;30.82;22.30;;;;;;;7.48;100.00;99453.98;1851226;77;20920;-61
2022/11/13 01:04:21;;;;;;;27.70;20.83;;;;;;;7.48;100.00;99453.98;1851460;77;21098;-60
2022/11/13 01:07:06;;;;;;;26.50;20.32;;;;;;;7.43;100.00;99452.02;1851300;77;27015;-60
2022/11/13 01:09:52;;;;;;;29.70;22.15;;;;;;;7.43;100.00;99450.69;1851568;77;21418;-60
2022/11/13 01:12:37;;;;;;;27.95;22.10;;;;;;;7.40;100.00;99446.33;1851268;77;21375;-60
2022/11/13 01:15:22;;;;;;;27.82;22.90;;;;;;;7.38;100.00;99451.09;1851370;77;20888;-60
2022/11/13 01:18:07;;;;;;;29.83;21.97;;;;;;;7.34;100.00;99456.61;1851428;77;21236;-60
2022/11/13 01:20:56;;;;;;;27.00;21.35;;;;;;;7.30;100.00;99463.45;1851272;77;20857;-60
2022/11/13 01:23:41;;;;;;;30.90;21.52;;;;;;;7.23;100.00;99457.44;1828103;77;20813;-60
2022/11/13 01:26:29;;;;;;;31.68;23.95;;;;;;;7.19;100.00;99453.59;1851166;77;20900;-59
2022/11/13 01:29:14;;;;;;;29.57;23.47;;;;;;;7.13;100.00;99451.87;1850283;77;20856;-60
2022/11/13 01:31:59;;;;;;;27.40;22.15;;;;;;;7.07;100.00;99454.12;1850295;77;21041;-60
2022/11/13 01:34:44;;;;;;;27.80;22.48;;;;;;;7.05;100.00;99448.22;1850386;77;20864;-60
2022/11/13 01:37:31;;;;;;;28.90;22.98;;;;;;;7.10;100.00;99449.66;1850297;77;21447;-59
2022/11/13 01:40:16;;;;;;;28.25;24.12;;;;;;;7.06;100.00;99448.52;1850423;77;21018;-59
2022/11/13 01:43:28;;;;;;;30.40;22.77;;;;;;;7.02;100.00;99452.70;1850607;77;20861;-60
2022/11/13 01:46:28;;;;;;;28.52;21.93;;;;;;;6.99;100.00;99457.14;1850399;77;22129;-59
2022/11/13 01:49:31;;;;;;;31.15;22.82;;;;;;;6.98;100.00;99451.52;1850374;77;20841;-59
2022/11/13 01:52:35;;;;;;;32.65;23.85;;;;;;;7.01;100.00;99447.06;1813080;77;20915;-59
2022/11/13 01:55:20;;;;;;;29.05;23.42;;;;;;;7.00;100.00;99450.76;1850606;77;21364;-60
2022/11/13 01:58:07;;;;;;;28.67;22.58;;;;;;;6.96;100.00;99454.94;1850415;77;20967;-59
2022/11/13 02:00:52;;;;;;;27.95;21.57;;;;;;;6.97;100.00;99447.25;1850576;77;21042;-59
2022/11/13 02:03:38;;;;;;;27.27;21.25;;;;;;;6.96;100.00;99445.61;1850489;77;21367;-60
2022/11/13 02:06:24;;;;;;;25.27;21.52;;;;;;;6.93;100.00;99440.74;1850465;77;20856;-59
2022/11/13 02:09:09;;;;;;;;;;;;;;;6.91;100.00;99439.65;1853177;77;20864;-59
2022/11/13 02:11:54;;;;;;;29.52;22.70;;;;;;;6.90;100.00;99432.17;1850445;77;20076;-60
2022/11/13 02:14:45;;;;;;;29.57;21.90;;;;;;;6.89;100.00;99429.23;1850387;77;20860;-60
2022/11/13 02:17:47;;;;;;;31.77;22.17;;;;;;;6.93;100.00;99432.75;1850354;77;20939;-60
2022/11/13 02:20:46;;;;;;;30.70;22.42;;;;;;;6.95;100.00;99430.69;1822418;77;20864;-60
2022/11/13 02:23:40;;;;;;;34.13;23.70;;;;;;;6.89;100.00;99427.91;1850358;77;20856;-60
2022/11/13 02:26:25;;;;;;;33.78;24.43;;;;;;;6.83;100.00;99435.98;1850643;77;21505;-58
2022/11/13 02:29:10;;;;;;;36.28;24.15;;;;;;;6.75;100.00;99431.02;1850482;77;21098;-59
2022/11/13 02:31:56;;;;;;;34.70;24.02;;;;;;;6.70;100.00;99433.05;1850449;77;20939;-60
2022/11/13 02:34:41;;;;;;;33.28;23.98;;;;;;;6.70;100.00;99431.72;1850411;77;20883;-60
2022/11/13 02:37:25;;;;;;;37.80;25.57;;;;;;;6.72;100.00;99434.95;1850657;77;21019;-59
2022/11/13 02:40:11;;;;;;;36.03;25.50;;;;;;;6.75;100.00;99435.84;1850591;77;20937;-60
2022/11/13 02:42:56;;;;;;;36.70;24.90;;;;;;;6.73;100.00;99433.92;1850528;77;21101;-60
2022/11/13 02:45:42;;;;;;;35.17;25.40;;;;;;;6.72;100.00;99440.28;1850232;77;21341;-60
2022/11/13 02:48:28;;;;;;;35.20;27.35;;;;;;;6.71;100.00;99435.98;1850514;77;20927;-60
2022/11/13 03:14:15;;;;;;;41.55;28.05;;;;;;;6.62;100.00;99425.38;1850401;77;21391;-61
2022/11/13 03:17:00;;;;;;;41.10;28.40;;;;;;;6.65;100.00;99423.60;1850508;77;20884;-61
2022/11/13 03:19:46;;;;;;;42.88;28.85;;;;;;;6.65;100.00;99425.45;1850496;77;21016;-60
2022/11/13 03:22:31;;;;;;;40.52;28.70;;;;;;;6.59;100.00;99423.72;1850628;77;21368;-61
2022/11/13 03:25:17;;;;;;;43.15;29.12;;;;;;;6.53;100.00;99429.43;1850500;77;21202;-61
2022/11/13 03:28:01;;;;;;;44.87;30.40;;;;;;;6.52;100.00;99434.48;1850512;77;20916;-60
2022/11/13 03:30:48;;;;;;;45.08;28.40;;;;;;;6.53;100.00;99433.42;1850310;77;20962;-59
2022/11/13 03:33:35;;;;;;;42.23;28.85;;;;;;;6.54;100.00;99435.57;1850321;77;21336;-59
2022/11/13 03:36:20;;;;;;;42.30;29.20;;;;;;;6.54;100.00;99436.90;1850574;77;21363;-59
2022/11/13 03:39:06;;;;;;;46.20;29.20;;;;;;;6.51;100.00;99431.52;1850491;77;21232;-60
2022/11/13 03:41:51;;;;;;;44.73;28.40;;;;;;;6.50;100.00;99428.55;1850781;77;21347;-58
2022/11/13 03:44:36;;;;;;;42.20;28.52;;;;;;;6.49;100.00;99430.94;1850491;77;20982;-59
2022/11/13 03:47:21;;;;;;;42.67;29.63;;;;;;;6.45;100.00;99433.77;1850601;77;20872;-59
2022/11/13 03:50:07;;;;;;;45.83;29.25;;;;;;;6.42;100.00;99428.89;1850512;77;20998;-59
2022/11/13 03:52:52;;;;;;;45.67;29.70;;;;;;;6.40;100.00;99433.64;1850293;77;22125;-59
2022/11/13 03:55:37;;;;;;;48.60;31.40;;;;;;;6.36;100.00;99433.78;1850408;77;20951;-58
2022/11/13 03:58:23;;;;;;;45.85;29.42;;;;;;;6.34;100.00;99429.22;1850488;77;20805;-59
2022/11/13 04:01:07;;;;;;;41.73;28.15;;;;;;;6.35;100.00;99431.36;1850285;77;20911;-60
2022/11/13 04:03:52;;;;;;;43.75;29.67;;;;;;;6.39;100.00;99428.02;1850867;77;21359;-61
2022/11/13 04:06:37;;;;;;;40.00;29.67;;;;;;;6.42;100.00;99420.91;1850490;77;21175;-61
2022/11/13 04:09:22;;;;;;;42.53;30.30;;;;;;;6.43;100.00;99418.52;1850423;77;20809;-60
2022/11/13 04:12:07;;;;;;;45.50;30.37;;;;;;;6.44;100.00;99418.83;1850440;77;20946;-61
2022/11/13 04:14:53;;;;;;;38.90;28.32;;;;;;;6.44;100.00;99418.83;1850465;77;20832;-60
2022/11/13 04:17:39;;;;;;;43.30;28.85;;;;;;;6.43;100.00;99423.84;1850492;77;25132;-60
2022/11/13 04:20:26;;;;;;;45.15;29.85;;;;;;;6.44;100.00;99424.16;1850531;77;21328;-60
2022/11/13 04:23:13;;;;;;;48.95;30.57;;;;;;;6.44;100.00;99427.33;1850272;77;21367;-61
2022/11/13 04:25:58;;;;;;;47.93;32.28;;;;;;;6.42;100.00;99427.56;1850333;77;20856;-60
2022/11/13 04:28:43;;;;;;;44.00;30.27;;;;;;;6.42;100.00;99426.23;1854012;77;21442;-61
2022/11/13 04:31:29;;;;;;;44.70;29.70;;;;;;;6.39;100.00;99424.02;1860239;77;20864;-61
2022/11/13 04:34:14;;;;;;;48.45;31.77;;;;;;;6.38;100.00;99434.91;1860330;77;21216;-60
2022/11/13 04:37:00;;;;;;;44.95;28.40;;;;;;;6.39;100.00;99433.85;1860152;77;20887;-60
2022/11/13 04:39:45;;;;;;;41.50;28.55;;;;;;;6.38;100.00;99435.73;1860222;77;20902;-61
2022/11/13 04:42:48;;;;;;;36.50;24.70;;;;;;;6.33;100.00;99443.58;1860410;77;21387;-61
2022/11/13 04:45:33;;;;;;;34.80;25.15;;;;;;;6.31;100.00;99439.00;1860088;77;20940;-60
2022/11/13 04:48:18;;;;;;;35.92;26.35;;;;;;;6.22;100.00;99437.68;1860313;77;21266;-60
2022/11/13 04:51:05;;;;;;;39.13;24.30;;;;;;;6.25;100.00;99446.55;1860617;77;21370;-60
2022/11/13 04:53:51;;;;;;;34.45;22.62;;;;;;;6.28;100.00;99443.44;1860154;77;20804;-61
2022/11/13 04:56:37;;;;;;;31.45;23.07;;;;;;;6.28;100.00;99445.28;1860119;77;20951;-60
2022/11/13 04:59:23;;;;;;;31.93;22.50;;;;;;;6.27;100.00;99441.80;1860109;77;20887;-59
2022/11/13 05:02:08;;;;;;;30.70;22.42;;;;;;;6.27;100.00;99446.31;1860181;77;21103;-59
2022/11/13 05:04:53;;;;;;;32.87;22.37;;;;;;;6.22;100.00;99452.31;1860394;77;20868;-58
2022/11/13 05:07:39;;;;;;;34.65;22.00;;;;;;;6.16;100.00;99451.39;1860212;77;20899;-59
2022/11/13 05:10:24;;;;;;;33.63;23.35;;;;;;;6.15;100.00;99449.75;1860283;77;21344;-59
2022/11/13 05:13:09;;;;;;;35.27;23.77;;;;;;;6.15;100.00;99452.42;1860536;77;20918;-59
2022/11/13 05:16:04;;;;;;;37.23;23.22;;;;;;;6.15;100.00;99456.92;1860502;77;21091;-59
2022/11/13 05:18:49;;;;;;;30.97;22.02;;;;;;;6.17;100.00;99453.55;1860497;77;21453;-59
2022/11/13 05:21:37;;;;;;;29.92;22.42;;;;;;;6.15;100.00;99450.27;1860291;77;21009;-58
2022/11/13 05:24:23;;;;;;;29.90;22.20;;;;;;;6.12;100.00;99460.05;1860544;77;21414;-59
2022/11/13 05:27:09;;;;;;;31.48;21.97;;;;;;;6.11;100.00;99464.55;1860497;77;20876;-59
2022/11/13 05:29:54;;;;;;;33.28;22.48;;;;;;;6.11;100.00;99464.55;1854245;76;21233;-59
2022/11/13 05:32:39;;;;;;;29.67;21.37;;;;;;;6.12;100.00;99465.38;1851381;77;20868;-59
2022/11/13 05:35:24;;;;;;;29.72;22.27;;;;;;;6.13;100.00;99461.66;1851464;77;21379;-59
2022/11/13 05:38:09;;;;;;;32.57;21.70;;;;;;;6.15;100.00;99459.06;1851578;77;20975;-60
2022/11/13 05:40:56;;;;;;;28.30;21.60;;;;;;;6.16;100.00;99455.89;1851401;77;20892;-59
2022/11/13 05:43:42;;;;;;;31.33;20.70;;;;;;;6.14;100.00;99457.97;1827919;77;21110;-59
2022/11/13 05:46:28;;;;;;;28.47;19.17;;;;;;;6.11;100.00;99458.41;1851612;77;20899;-60
2022/11/13 05:49:13;;;;;;;29.52;21.70;;;;;;;6.12;100.00;99457.39;1851323;77;20820;-58
2022/11/13 05:51:58;;;;;;;26.82;19.75;;;;;;;6.12;100.00;99460.05;1851420;77;20955;-59
2022/11/13 05:54:44;;;;;;;24.23;17.52;;;;;;;6.11;100.00;99455.75;1851255;77;20824;-60
2022/11/13 05:57:29;;;;;;;26.48;18.10;;;;;;;6.12;100.00;99457.39;1851349;77;21221;-59
2022/11/13 06:00:17;;;;;;;23.67;18.95;;;;;;;6.10;100.00;99463.46;1851393;77;20809;-60
2022/11/13 06:03:02;;;;;;;26.07;19.80;;;;;;;6.13;100.00;99466.98;1851193;77;20891;-59
2022/11/13 06:05:47;;;;;;;25.70;17.87;;;;;;;6.17;100.00;99481.48;1851402;77;20880;-59
2022/11/13 06:08:32;;;;;;;21.07;16.90;;;;;;;6.19;100.00;99472.74;1851687;77;21379;-60
2022/11/13 06:11:20;;;;;;;22.25;16.65;;;;;;;6.19;100.00;99474.08;1851437;77;21229;-59
2022/11/13 06:14:06;;;;;;;22.70;17.42;;;;;;;6.19;100.00;99474.08;1851177;77;21010;-60
2022/11/13 06:16:51;;;;;;;22.17;16.77;;;;;;;6.17;100.00;99480.14;1851676;77;20825;-60
2022/11/13 06:19:43;;;;;;;23.32;16.67;;;;;;;6.18;100.00;99473.25;1851120;77;20868;-59
2022/11/13 06:22:29;;;;;;;24.70;17.23;;;;;;;6.22;100.00;99482.91;1851319;77;20872;-59
2022/11/13 06:25:15;;;;;;;23.32;16.77;;;;;;;6.23;100.00;99474.42;1851264;77;21225;-60
2022/11/13 06:28:00;;;;;;;22.52;16.50;;;;;;;6.25;100.00;99488.30;1851367;77;20939;-60
2022/11/13 06:30:46;;;;;;;21.35;15.50;;;;;;;6.24;100.00;99480.05;1850646;76;21011;-61
2022/11/13 06:33:31;;;;;;;21.30;15.95;;;;;;;6.24;100.00;99489.36;1850366;77;20840;-60
2022/11/13 06:36:22;;;;;;;;;;;;;;;6.23;100.00;99483.22;1853191;77;20955;-60
2022/11/13 06:39:08;;;;;;;19.30;14.10;;;;;;;6.28;100.00;99480.70;1850412;77;21111;-59
2022/11/13 06:41:53;;;;;;;22.42;13.88;;;;;;;6.33;100.00;99485.34;1850459;77;28103;-61
2022/11/13 06:44:39;;;;;;;16.90;13.28;;;;;;;6.33;100.00;99488.81;1850529;77;20939;-59
2022/11/13 06:47:24;;;;;;;17.42;13.93;;;;;;;6.38;100.00;99492.95;1850737;77;21355;-60
2022/11/13 06:50:09;;;;;;;16.42;13.03;;;;;;;6.44;100.00;99484.04;1850425;77;20955;-60
2022/11/13 06:52:54;;;;;;;17.37;11.83;;;;;;;6.45;100.00;99485.67;1850516;77;21103;-62
2022/11/13 06:55:48;;;;;;;16.35;12.28;;;;;;;6.47;100.00;99486.77;1850455;77;20903;-61
2022/11/13 06:58:33;;;;;;;16.67;12.40;;;;;;;6.47;100.00;99484.92;1850391;77;20821;-61
2022/11/13 07:01:21;;;;;;;18.57;13.95;;;;;;;6.52;100.00;99490.38;1850381;77;21509;-59
2022/11/13 07:04:09;;;;;;;18.85;14.10;;;;;;;6.56;100.00;99491.54;1850412;77;20915;-61
2022/11/13 07:06:56;;;;;;;18.67;13.40;;;;;;;6.60;100.00;99483.37;1850303;77;20995;-61
2022/11/13 07:09:43;;;;;;;15.00;12.55;;;;;;;6.66;100.00;99476.34;1850309;77;21411;-59
2022/11/13 07:12:28;;;;;;;20.00;12.98;;;;;;;6.70;100.00;99485.48;1850497;77;25061;-60
2022/11/13 07:15:15;;;;;;;18.25;13.35;;;;;;;6.73;100.00;99480.53;1850343;77;20884;-60
2022/11/13 07:18:01;;;;;;;;;;;;;;;6.77;100.00;99481.68;1853129;77;20879;-59
2022/11/13 07:20:46;;;;;;;17.27;13.37;;;;;;;6.81;100.00;99476.18;1850878;77;21092;-60
2022/11/13 07:23:35;;;;;;;17.30;12.78;;;;;;;6.83;100.00;99475.42;1850384;77;20891;-61
2022/11/13 07:26:21;;;;;;;16.93;11.90;;;;;;;6.80;100.00;99483.89;1850347;77;20892;-59
2022/11/13 07:29:06;;;;;;;18.92;11.12;;;;;;;6.82;100.00;99475.15;1850809;77;21334;-60
2022/11/13 07:31:52;;;;;;;12.73;9.80;;;;;;;6.81;100.00;99475.36;1850515;77;20924;-60
2022/11/13 07:34:37;;;;;;;12.47;8.60;;;;;;;6.80;100.00;99482.56;1850247;77;20985;-60
2022/11/13 07:37:22;;;;;;;12.28;9.00;;;;;;;6.79;100.00;99475.60;1850436;77;20849;-60
2022/11/13 07:40:09;;;;;;;14.50;9.55;;;;;;;6.79;100.00;99475.60;1850418;77;20864;-59
2022/11/13 07:43:01;;;;;;;16.07;10.95;;;;;;;6.81;100.00;99470.85;1850338;77;20865;-61
2022/11/13 07:45:46;;;;;;;15.40;10.65;;;;;;;6.83;100.00;99463.44;1850362;77;20947;-61
2022/11/13 07:48:31;;;;;;;15.40;11.45;;;;;;;6.83;100.00;99467.44;1850495;77;21216;-59
2022/11/13 07:51:16;;;;;;;14.35;10.68;;;;;;;6.80;100.00;99463.92;1850277;77;20899;-60
2022/11/13 07:54:02;;;;;;;16.62;11.85;;;;;;;6.79;100.00;99468.94;1850464;77;25158;-60
2022/11/13 07:56:47;;;;;;;16.37;11.38;;;;;;;6.81;100.00;99457.53;1850448;77;21512;-61
2022/11/13 07:59:33;;;;;;;17.07;11.15;;;;;;;6.83;100.00;99466.09;1850514;77;20864;-59
2022/11/13 08:02:17;;;;;;;15.40;10.32;;;;;;;6.85;100.00;99470.67;1850317;77;21275;-61
2022/11/13 08:05:03;;;;;;;14.23;10.87;;;;;;;6.82;100.00;99475.66;1850440;77;20899;-60
2022/11/13 08:07:50;;;;;;;19.90;12.60;;;;;;;6.78;100.00;99480.63;1850328;77;20857;-60
2022/11/13 08:10:36;;;;;;;15.00;11.18;;;;;;;6.80;100.00;99479.90;1834484;77;38863;-60
2022/11/13 08:13:21;;;;;;;14.98;9.95;;;;;;;6.90;100.00;99474.80;1850292;77;20891;-60
2022/11/13 08:16:07;;;;;;;16.30;10.38;;;;;;;6.97;100.00;99479.22;1850444;77;21218;-60
2022/11/13 08:18:53;;;;;;;15.53;10.72;;;;;;;6.97;100.00;99481.88;1850252;77;20887;-60
2022/11/13 08:21:38;;;;;;;14.25;9.45;;;;;;;6.97;100.00;99472.55;1850593;77;20860;-60
2022/11/13 08:24:23;;;;;;;13.95;8.25;;;;;;;7.02;100.00;99468.68;1850493;77;21352;-60
2022/11/13 08:27:08;;;;;;;13.00;9.77;;;;;;;7.05;100.00;99468.20;1850582;77;20876;-60
2022/11/13 08:29:53;;;;;;;15.73;9.33;;;;;;;7.00;100.00;99471.55;1850692;77;22053;-60
2022/11/13 08:32:39;;;;;;;13.08;9.40;;;;;;;7.02;100.00;99472.68;1850096;77;20986;-59
2022/11/13 08:35:24;;;;;;;16.82;9.98;;;;;;;7.00;100.00;99476.06;1850464;77;20844;-60
2022/11/13 08:38:09;;;;;;;14.65;8.85;;;;;;;6.99;100.00;99473.95;1850361;77;21035;-58
2022/11/13 08:41:01;;;;;;;12.88;8.78;;;;;;;7.07;100.00;99468.77;1850462;77;21295;-59
2022/11/13 08:43:46;;;;;;;10.10;7.55;;;;;;;7.13;100.00;99467.86;1850312;77;21185;-61
2022/11/13 08:46:31;;;;;;;13.32;8.65;;;;;;;7.20;100.00;99464.55;1850386;77;26032;-60
2022/11/13 08:49:16;;;;;;;10.72;7.08;;;;;;;7.26;100.00;99459.09;1850717;77;20891;-59
2022/11/13 08:52:02;;;;;;;12.73;8.75;;;;;;;7.32;100.00;99458.70;1850605;77;20876;-60
2022/11/13 08:54:47;;;;;;;11.33;8.80;;;;;;;7.39;100.00;99464.72;1850627;77;20892;-60
2022/11/13 08:57:32;;;;;;;11.53;6.67;;;;;;;7.42;100.00;99466.38;1850741;77;21054;-60
2022/11/13 09:00:17;;;;;;;10.50;7.28;;;;;;;7.46;100.00;99468.89;1850422;77;20872;-60
2022/11/13 09:03:03;;;;;;;12.20;7.45;;;;;;;7.47;100.00;99463.01;1850580;77;21296;-60
2022/11/13 09:05:48;;;;;;;9.30;6.80;;;;;;;7.45;100.00;99464.58;1850574;77;20872;-61
2022/11/13 09:08:33;;;;;;;9.08;6.28;;;;;;;7.48;100.00;99468.64;1850775;77;20888;-59
2022/11/13 09:11:18;;;;;;;11.30;6.77;;;;;;;7.53;100.00;99471.42;1850721;77;21089;-59
2022/11/13 09:14:03;;;;;;;9.38;6.28;;;;;;;7.57;100.00;99466.71;1850407;77;20936;-59
2022/11/13 09:16:49;;;;;;;7.65;5.33;;;;;;;7.62;100.00;99477.19;1850578;77;20848;-60
2022/11/13 09:19:35;;;;;;;7.03;5.20;;;;;;;7.64;100.00;99475.91;1850449;77;20876;-60
2022/11/13 09:22:20;;;;;;;8.80;5.73;;;;;;;7.68;100.00;99470.38;1850940;77;21418;-60
2022/11/13 09:25:06;;;;;;;8.37;5.77;;;;;;;7.72;100.00;99471.55;1850616;77;21179;-60
2022/11/13 09:27:58;;;;;;;8.65;5.72;;;;;;;7.71;100.00;99469.92;1850384;77;20820;-60
2022/11/13 09:30:43;;;;;;;7.53;5.03;;;;;;;7.70;100.00;99470.17;1850552;76;21368;-60
2022/11/13 09:33:30;;;;;;;7.53;5.28;;;;;;;7.66;100.00;99467.14;1850396;77;20988;-61
2022/11/13 09:36:16;;;;;;;6.80;5.35;;;;;;;7.68;100.00;99471.72;1850609;77;20887;-60
2022/11/13 09:39:02;;;;;;;7.47;5.87;;;;;;;7.72;100.00;99461.41;1850453;77;21095;-60
2022/11/13 09:41:55;;;;;;;7.10;4.80;;;;;;;7.79;100.00;99459.41;1850358;77;20947;-60
2022/11/13 09:44:49;;;;;;;9.65;5.72;;;;;;;7.80;100.00;99464.50;1850481;77;21213;-61
2022/11/13 09:47:39;;;;;;;6.85;4.65;;;;;;;7.77;100.00;99464.99;1850296;77;20892;-58
2022/11/13 09:50:27;;;;;;;9.98;7.70;;;;;;;7.76;100.00;99456.69;1850441;77;20892;-60
2022/11/13 09:53:12;;;;;;;9.93;6.35;;;;;;;7.76;100.00;99458.02;1850404;77;21054;-60
2022/11/13 09:56:13;;;;;;;9.00;5.53;;;;;;;7.74;100.00;99454.78;1850188;77;21467;-59
2022/11/13 09:59:18;;;;;;;6.62;5.12;;;;;;;7.71;100.00;99453.92;1850341;77;20892;-59
2022/11/13 10:02:44;;;;;;;8.33;5.42;;;;;;;7.68;100.00;99451.72;1850405;77;20867;-60
2022/11/13 10:06:08;;;;;;;9.10;5.53;;;;;;;7.70;100.00;99447.50;1850434;77;20963;-61
2022/11/13 10:09:10;;;;;;;8.88;4.90;;;;;;;7.78;100.00;99455.92;1850411;77;21105;-59
2022/11/13 10:12:02;;;;;;;6.80;4.80;;;;;;;7.83;100.00;99456.03;1850422;77;21333;-59
2022/11/13 10:14:51;;;;;;;7.75;5.05;;;;;;;7.80;100.00;99464.50;1850371;77;20849;-60
2022/11/13 10:17:45;;;;;;;9.48;5.28;;;;;;;7.82;100.00;99461.06;1850301;77;21486;-60
2022/11/13 10:20:40;;;;;;;8.40;5.83;;;;;;;7.83;100.00;99461.37;1850389;77;20939;-60
2022/11/13 10:23:34;;;;;;;7.55;5.67;;;;;;;7.79;100.00;99461.56;1850397;77;21216;-60
2022/11/13 10:26:21;;;;;;;6.87;5.47;;;;;;;7.76;100.00;99451.87;1823966;77;21383;-60
2022/11/13 10:29:18;;;;;;;9.43;5.80;;;;;;;7.79;100.00;99450.08;1850386;77;21360;-61
2022/11/13 10:32:26;;;;;;;7.72;5.35;;;;;;;7.81;100.00;99453.31;1858492;77;20840;-60
2022/11/13 10:35:20;;;;;;;11.85;6.80;;;;;;;7.80;100.00;99456.50;1860272;77;20844;-60
2022/11/13 10:38:10;;;;;;;10.45;6.42;;;;;;;7.76;100.00;99445.20;1860375;77;22112;-60
2022/11/13 10:41:17;;;;;;;9.05;5.53;;;;;;;7.71;100.00;99447.25;1860197;77;20820;-60
2022/11/13 10:44:08;;;;;;;6.75;4.60;;;;;;;7.75;100.00;99446.27;1860411;77;21335;-61
2022/11/13 10:47:16;;;;;;;8.58;5.22;;;;;;;7.79;100.00;99451.41;1860246;77;20867;-60
2022/11/13 10:50:13;;;;;;;7.42;5.00;;;;;;;7.83;100.00;99456.03;1860246;77;20848;-60
2022/11/13 10:52:59;;;;;;;5.60;4.22;;;;;;;7.84;100.00;99448.33;1860216;77;21221;-61
2022/11/13 10:55:44;;;;;;;5.90;4.15;;;;;;;7.80;100.00;99447.16;1860338;77;20820;-60
2022/11/13 10:58:31;;;;;;;8.95;5.12;;;;;;;7.73;100.00;99440.33;1860075;77;20966;-60
2022/11/13 11:01:22;;;;;;;5.37;4.27;;;;;;;7.76;100.00;99439.36;1860511;77;20840;-60
2022/11/13 11:04:15;;;;;;;7.60;5.00;;;;;;;7.85;100.00;99443.27;1860490;77;21423;-60
2022/11/13 11:07:15;;;;;;;7.20;4.12;;;;;;;7.87;100.00;99435.83;1860245;77;21100;-59
2022/11/13 11:10:02;;;;;;;4.45;2.90;;;;;;;7.86;100.00;99436.89;1860089;77;21392;-59
2022/11/13 11:12:55;;;;;;;;;;;;;;;7.84;100.00;99430.98;1862977;77;21360;-60
2022/11/13 11:15:46;;;;;;;4.75;3.42;;;;;;;7.84;100.00;99428.32;1836405;77;20080;-60
2022/11/13 11:18:43;;;;;;;6.87;4.28;;;;;;;7.81;100.00;99426.64;1860254;77;20840;-60
2022/11/13 11:21:33;;;;;;;6.55;3.90;;;;;;;7.81;100.00;99423.97;1860156;77;21223;-60
2022/11/13 11:24:35;;;;;;;3.90;3.27;;;;;;;7.83;100.00;99419.20;1860135;77;20877;-60
2022/11/13 11:27:37;;;;;;;5.62;3.83;;;;;;;7.82;100.00;99418.94;1860225;77;20899;-60
2022/11/13 11:30:25;;;;;;;6.85;3.83;;;;;;;7.87;100.00;99418.48;1860219;77;20864;-60
2022/11/13 11:33:28;;;;;;;4.80;3.22;;;;;;;7.95;100.00;99422.64;1860186;77;20942;-60
2022/11/13 11:36:49;;;;;;;5.75;3.47;;;;;;;7.98;100.00;99410.16;1860191;77;21213;-59
2022/11/13 11:39:49;;;;;;;4.53;2.92;;;;;;;8.01;100.00;99405.14;1860079;77;20852;-62
2022/11/13 11:42:42;;;;;;;4.22;2.72;;;;;;;8.01;100.00;99408.33;1860127;77;20891;-61
2022/11/13 11:45:42;;;;;;;5.40;3.10;;;;;;;7.97;100.00;99409.34;1860180;77;20959;-60
2022/11/13 11:48:29;;;;;;;3.60;3.00;;;;;;;7.90;100.00;99403.34;1860328;77;21461;-59
2022/11/13 11:51:23;;;;;;;4.05;2.98;;;;;;;7.81;100.00;99408.78;1860178;77;21783;-60
2022/11/13 11:54:17;;;;;;;4.80;3.47;;;;;;;7.80;100.00;99397.81;1860086;77;20864;-60
2022/11/13 11:57:12;;;;;;;6.33;2.85;;;;;;;7.83;100.00;99396.53;1860260;77;20848;-60
2022/11/13 12:00:05;;;;;;;4.67;3.10;;;;;;;7.84;100.00;99396.31;1860093;77;21031;-60
2022/11/13 12:03:20;;;;;;;6.65;3.70;;;;;;;7.84;100.00;99393.64;1860173;77;20875;-61
2022/11/13 12:06:42;;;;;;;6.37;4.17;;;;;;;7.88;100.00;99386.77;1853894;77;21234;-59
2022/11/13 12:09:34;;;;;;;6.10;3.87;;;;;;;7.91;100.00;99378.30;1718024;82;20997;-59
2022/11/13 12:12:52;;;;;;;6.83;4.90;;;;;;;7.91;100.00;99380.16;1817181;79;21375;-59
2022/11/13 12:16:08;;;;;;;4.53;2.40;;;;;;;7.92;100.00;99375.91;1816943;78;20991;-60
2022/11/13 12:19:05;;;;;;;5.85;4.05;;;;;;;7.95;100.00;99374.09;1784809;80;20851;-58
2022/11/13 12:22:05;;;;;;;4.45;3.02;;;;;;;7.96;100.00;99375.70;1784919;80;21938;-61
2022/11/13 12:25:02;;;;;;;2.77;2.12;;;;;;;7.98;100.00;99370.14;1784739;80;20946;-60
2022/11/13 12:28:11;;;;;;;5.10;3.20;;;;;;;8.01;100.00;99375.80;1802106;79;21454;-60
2022/11/13 12:31:23;;;;;;;7.05;4.22;;;;;;;8.01;100.00;99375.80;1793045;79;20871;-60
2022/11/13 12:34:39;;;;;;;5.08;2.83;;;;;;;7.99;100.00;99377.08;1793369;80;21002;-60
2022/11/13 12:37:37;;;;;;;5.80;3.90;;;;;;;7.94;100.00;99378.31;1793379;80;21226;-60
2022/11/13 12:40:52;;;;;;;3.72;2.95;;;;;;;7.91;100.00;99372.97;1793293;80;20915;-60
2022/11/13 12:44:23;;;;;;;3.65;2.80;;;;;;;7.94;100.00;99367.64;1793377;80;20938;-60
2022/11/13 12:47:08;;;;;;;3.98;2.67;;;;;;;7.97;100.00;99369.33;1793353;80;21002;-59
2022/11/13 12:50:04;;;;;;;7.28;3.42;;;;;;;8.00;100.00;99364.03;1793545;80;20851;-60
2022/11/13 12:53:09;;;;;;;5.75;2.65;;;;;;;8.05;100.00;99360.94;1793505;80;21267;-60
2022/11/13 12:56:01;;;;;;;3.30;2.20;;;;;;;8.09;100.00;99359.40;1793147;80;20907;-60
2022/11/13 12:59:00;;;;;;;3.67;2.22;;;;;;;8.14;100.00;99356.83;1793358;80;20851;-61
2022/11/13 13:01:53;;;;;;;3.12;2.15;;;;;;;8.15;100.00;99360.28;1793411;80;21427;-59
2022/11/13 13:04:55;;;;;;;3.98;2.30;;;;;;;8.12;100.00;99349.59;1793364;80;20907;-60
2022/11/13 13:08:14;;;;;;;2.87;1.82;;;;;;;8.11;100.00;99351.95;1788372;80;21720;-61
2022/11/13 13:11:17;;;;;;;3.50;1.47;;;;;;;8.08;100.00;99347.09;1793263;80;20966;-60
2022/11/13 13:14:34;;;;;;;2.50;1.72;;;;;;;8.08;100.00;99349.77;1793554;80;21395;-60
2022/11/13 13:17:21;;;;;;;2.45;1.40;;;;;;;8.07;100.00;99353.50;1793335;80;20986;-61
2022/11/13 13:20:15;;;;;;;3.22;1.75;;;;;;;8.05;100.00;99344.93;1793396;80;20883;-61
2022/11/13 13:23:01;;;;;;;3.30;1.80;;;;;;;8.01;100.00;99342.44;1793359;80;21232;-61
2022/11/13 13:25:46;;;;;;;2.83;1.85;;;;;;;8.01;100.00;99338.44;1793439;80;20938;-59
2022/11/13 13:50:46;;;;;;;3.17;2.50;;;;;;;7.96;100.00;99336.23;1803002;79;21441;-60
2022/11/13 13:53:33;;;;;;;4.08;2.60;;;;;;;7.92;100.00;99341.73;1816764;79;21395;-60